Time;durP1;ratioP1;P1;durP2;ratioP2;P2;SDS_P1;SDS_P2;PMS_P1;PMS_P2;Temp;Humidity;BMP_temperature;BMP_pressure;BME280_temperature;BME280_humidity;BME280_pressure;Samples;Min_cycle;Max_cycle;Signal;HPM_P1;HPM_P2
2021/12/14 00:01:38;;;;;;;11.43;6.90;;;;;;;7.65;100.00;102394.84;4952318;29;20431;-77
2021/12/14 00:04:07;;;;;;;11.93;5.88;;;;;;;7.65;100.00;102393.97;4968869;28;20038;-77
2021/12/14 00:06:37;;;;;;;9.05;5.78;;;;;;;7.63;100.00;102394.03;4951083;28;20767;-77
2021/12/14 00:09:05;;;;;;;10.70;6.78;;;;;;;7.61;100.00;102392.31;4969096;28;20023;-77
2021/12/14 00:17:31;;;;;;;18.17;7.20;;;;;;;7.57;100.00;102386.13;4948411;28;20039;-77
2021/12/14 00:20:00;;;;;;;11.23;6.00;;;;;;;7.58;100.00;102387.91;4953037;29;20161;-78
2021/12/14 00:24:56;;;;;;;14.07;6.72;;;;;;;7.53;100.00;102374.47;4969339;28;20040;-77
2021/12/14 00:27:23;;;;;;;11.05;6.05;;;;;;;7.53;100.00;102374.47;4969496;28;20041;-79
2021/12/14 00:29:53;;;;;;;17.83;6.78;;;;;;;7.60;100.00;102379.66;4953379;28;20093;-79
2021/12/14 00:32:23;;;;;;;17.58;8.20;;;;;;;7.58;100.00;102382.44;4974107;28;20042;-78
2021/12/14 00:34:51;;;;;;;11.10;6.38;;;;;;;7.55;100.00;102388.03;4982001;28;20027;-78
2021/12/14 00:37:20;;;;;;;13.27;7.53;;;;;;;7.47;100.00;102373.84;4962403;28;20041;-78
2021/12/14 00:39:46;;;;;;;20.25;8.10;;;;;;;7.50;100.00;102393.66;4961755;28;20043;-78
2021/12/14 00:42:12;;;;;;;17.83;8.77;;;;;;;7.47;100.00;102387.47;4960916;28;20045;-78
2021/12/14 00:44:38;;;;;;;16.98;8.77;;;;;;;7.42;100.00;102370.41;4959079;28;20046;-77
2021/12/14 00:47:04;;;;;;;18.20;8.52;;;;;;;7.42;100.00;102382.19;4968664;28;20420;-77
2021/12/14 00:49:30;;;;;;;16.77;9.32;;;;;;;7.42;100.00;102390.38;4957923;28;20031;-79
2021/12/14 00:51:56;;;;;;;24.20;10.52;;;;;;;7.41;100.00;102393.16;4956826;29;20074;-77
2021/12/14 00:54:22;;;;;;;20.45;10.80;;;;;;;7.39;100.00;102397.78;4959445;28;20447;-77
2021/12/14 00:56:50;;;;;;;19.70;10.35;;;;;;;7.41;100.00;102402.25;4957173;28;20039;-77
2021/12/14 00:59:18;;;;;;;20.55;11.68;;;;;;;7.40;100.00;102400.44;4972556;28;20446;-77
2021/12/14 01:02:02;;;;;;;20.08;10.68;;;;;;;7.39;100.00;102404.13;4955684;28;20122;-77
2021/12/14 01:04:33;;;;;;;19.88;10.20;;;;;;;7.41;100.00;102407.69;4957573;28;20039;-77
2021/12/14 01:06:59;;;;;;;17.90;9.75;;;;;;;7.39;100.00;102411.41;4971887;28;20484;-77
2021/12/14 01:09:29;;;;;;;18.77;10.43;;;;;;;7.40;100.00;102419.53;4963434;28;20027;-77
2021/12/14 01:11:59;;;;;;;19.65;10.75;;;;;;;7.35;100.00;102399.75;4957467;28;20705;-77
2021/12/14 01:14:39;;;;;;;18.73;10.32;;;;;;;7.37;100.00;102411.47;4957689;28;20035;-77
2021/12/14 01:17:13;;;;;;;21.63;10.43;;;;;;;7.32;100.00;102408.94;4971170;28;20068;-77
2021/12/14 01:19:54;;;;;;;21.65;10.80;;;;;;;7.37;100.00;102408.75;4957030;28;20475;-76
2021/12/14 01:22:45;;;;;;;17.75;10.43;;;;;;;7.38;100.00;102406.91;4948035;28;20471;-77
2021/12/14 01:25:16;;;;;;;21.40;10.50;;;;;;;7.34;100.00;102400.69;4957414;28;20031;-77
2021/12/14 01:27:51;;;;;;;16.58;11.15;;;;;;;7.33;100.00;102416.16;4957179;28;20063;-77
2021/12/14 01:30:28;;;;;;;20.00;10.50;;;;;;;7.32;100.00;102402.59;4955333;28;20027;-77
2021/12/14 01:32:56;;;;;;;20.27;10.98;;;;;;;7.28;100.00;102412.75;4956800;28;20374;-77
2021/12/14 01:35:28;;;;;;;17.50;10.77;;;;;;;7.32;100.00;102410.78;4971311;28;20038;-77
2021/12/14 01:40:54;;;;;;;19.48;9.30;;;;;;;7.26;100.00;102397.38;4952794;28;20039;-77
2021/12/14 01:43:24;;;;;;;20.45;10.07;;;;;;;7.25;100.00;102401.09;4954638;28;20475;-77
2021/12/14 01:45:51;;;;;;;14.00;9.43;;;;;;;7.25;100.00;102395.63;4956539;28;20043;-77
2021/12/14 01:48:17;;;;;;;19.33;10.32;;;;;;;7.24;100.00;102382.94;4962681;28;20047;-77
2021/12/14 01:50:50;;;;;;;18.30;9.98;;;;;;;7.24;100.00;102374.78;4955836;28;20043;-77
2021/12/14 01:53:20;;;;;;;14.05;9.48;;;;;;;7.22;100.00;102373.97;4939149;29;20113;-77
2021/12/14 01:55:51;;;;;;;21.15;10.70;;;;;;;7.23;100.00;102381.16;4955000;29;20114;-77
2021/12/14 01:58:18;;;;;;;17.98;10.68;;;;;;;7.20;100.00;102376.75;4971544;28;20035;-77
2021/12/14 02:00:56;;;;;;;14.77;9.90;;;;;;;7.17;100.00;102383.19;4955812;28;20031;-77
2021/12/14 02:03:33;;;;;;;16.67;10.60;;;;;;;7.17;100.00;102376.88;4956543;28;20039;-79
2021/12/14 02:05:58;;;;;;;17.25;10.88;;;;;;;7.17;100.00;102382.31;4955648;28;20047;-77
2021/12/14 02:08:29;;;;;;;19.73;10.27;;;;;;;7.17;100.00;102363.25;4955533;28;20150;-77
2021/12/14 02:10:58;;;;;;;22.13;10.80;;;;;;;7.17;100.00;102376.88;4955525;28;20059;-77
2021/12/14 02:13:37;;;;;;;17.35;10.50;;;;;;;7.15;100.00;102365.16;4971012;28;20122;-77
2021/12/14 02:16:05;;;;;;;18.02;11.07;;;;;;;7.13;100.00;102358.84;4954372;28;20042;-77
2021/12/14 02:18:31;;;;;;;20.48;11.23;;;;;;;7.11;100.00;102356.19;4954861;29;20035;-77
2021/12/14 02:21:04;;;;;;;21.23;12.82;;;;;;;7.15;100.00;102351.53;4938707;29;20035;-77
2021/12/14 02:23:30;;;;;;;19.98;12.30;;;;;;;7.13;100.00;102353.41;4968405;28;20047;-77
2021/12/14 02:25:59;;;;;;;28.17;13.50;;;;;;;7.13;100.00;102348.88;4970587;28;20489;-77
2021/12/14 02:28:26;;;;;;;22.13;12.70;;;;;;;7.12;100.00;102346.22;4954989;28;20031;-77
2021/12/14 02:30:54;;;;;;;23.20;13.20;;;;;;;7.12;100.00;102341.63;4971253;28;20038;-77
2021/12/14 02:33:24;;;;;;;24.42;12.77;;;;;;;7.13;100.00;102340.69;4971079;28;20549;-77
2021/12/14 02:35:52;;;;;;;19.58;12.00;;;;;;;7.09;100.00;102333.59;4955964;28;20032;-77
2021/12/14 02:38:19;;;;;;;22.05;12.25;;;;;;;7.09;100.00;102352.66;4956096;28;20043;-77
2021/12/14 02:40:55;;;;;;;22.73;11.23;;;;;;;7.08;100.00;102337.25;4953902;28;20499;-77
2021/12/14 02:43:45;;;;;;;25.90;11.95;;;;;;;7.08;100.00;102353.59;4958503;28;20499;-77
2021/12/14 02:46:19;;;;;;;21.23;12.48;;;;;;;7.11;100.00;102338.97;4936202;29;20479;-77
2021/12/14 02:48:53;;;;;;;23.90;12.55;;;;;;;7.10;100.00;102343.53;4957379;29;20046;-77
2021/12/14 02:51:34;;;;;;;26.40;13.45;;;;;;;7.10;100.00;102345.34;4974038;28;20043;-77
2021/12/14 02:54:06;;;;;;;24.25;12.48;;;;;;;7.07;100.00;102345.50;4958120;28;20046;-79
2021/12/14 02:56:34;;;;;;;20.63;12.88;;;;;;;7.08;100.00;102345.41;4963291;28;20043;-77
2021/12/14 02:59:05;;;;;;;22.45;12.55;;;;;;;7.05;100.00;102340.13;4970264;28;20137;-77
2021/12/14 03:01:32;;;;;;;26.55;13.90;;;;;;;7.09;100.00;102349.94;4955082;28;20158;-77
2021/12/14 03:04:03;;;;;;;22.20;13.02;;;;;;;7.09;100.00;102343.59;4954183;28;20054;-77
2021/12/14 03:06:32;;;;;;;24.27;13.73;;;;;;;7.06;100.00;102336.44;4954900;28;20055;-79
2021/12/14 03:09:15;;;;;;;23.33;12.52;;;;;;;7.06;100.00;102339.16;4955492;28;20043;-77
2021/12/14 03:11:43;;;;;;;24.20;13.48;;;;;;;7.07;100.00;102335.50;4954348;28;20035;-77
2021/12/14 03:14:08;;;;;;;21.73;13.25;;;;;;;7.12;100.00;102346.22;4938169;29;20027;-77
2021/12/14 03:16:36;;;;;;;27.35;12.05;;;;;;;7.08;100.00;102336.38;4954701;28;20034;-77
2021/12/14 03:19:06;;;;;;;22.08;13.30;;;;;;;7.08;100.00;102331.81;4956111;29;20456;-77
2021/12/14 03:21:35;;;;;;;23.67;13.05;;;;;;;7.06;100.00;102319.22;4955546;28;20067;-77
2021/12/14 03:24:04;;;;;;;22.80;13.32;;;;;;;7.06;100.00;102319.22;4955051;28;20046;-77
2021/12/14 03:26:33;;;;;;;22.15;12.95;;;;;;;7.02;100.00;102315.75;4955288;28;20042;-76
2021/12/14 03:29:07;;;;;;;31.73;13.63;;;;;;;6.99;100.00;102314.00;4966824;28;20046;-77
2021/12/14 03:31:40;;;;;;;23.50;12.48;;;;;;;7.04;100.00;102323.84;4968771;28;20118;-77
2021/12/14 03:34:11;;;;;;;25.58;12.75;;;;;;;7.03;100.00;102311.16;4954595;28;20043;-77
2021/12/14 03:36:53;;;;;;;27.65;13.07;;;;;;;7.04;100.00;102312.94;4969400;28;20035;-77
2021/12/14 03:39:22;;;;;;;25.60;12.73;;;;;;;7.03;100.00;102314.75;4966534;28;20074;-77
2021/12/14 03:42:00;;;;;;;23.88;12.90;;;;;;;7.08;100.00;102314.59;4954093;28;20101;-77
2021/12/14 03:44:36;;;;;;;20.83;11.75;;;;;;;7.07;100.00;102307.38;4954921;28;20035;-77
2021/12/14 03:47:10;;;;;;;24.40;12.82;;;;;;;7.02;100.00;102315.75;4969409;28;20467;-77
2021/12/14 03:49:43;;;;;;;23.90;12.45;;;;;;;7.01;100.00;102319.41;4953963;28;20047;-77
2021/12/14 03:52:12;;;;;;;25.80;13.40;;;;;;;7.03;100.00;102325.66;4954310;28;20035;-77
2021/12/14 03:54:38;;;;;;;26.65;13.20;;;;;;;7.04;100.00;102318.41;4953265;28;20375;-77
2021/12/14 03:57:04;;;;;;;27.52;13.32;;;;;;;6.97;100.00;102307.75;4954275;28;20039;-77
2021/12/14 03:59:31;;;;;;;24.88;13.80;;;;;;;7.00;100.00;102328.50;4952995;28;20446;-77
2021/12/14 04:02:01;;;;;;;27.13;14.50;;;;;;;7.01;100.00;102343.91;4953492;28;20028;-77
2021/12/14 04:04:31;;;;;;;29.48;15.38;;;;;;;6.99;100.00;102340.38;4951929;28;20392;-77
2021/12/14 04:06:58;;;;;;;31.67;15.07;;;;;;;7.02;100.00;102345.69;4968975;28;20513;-77
2021/12/14 04:09:28;;;;;;;26.30;15.00;;;;;;;6.99;100.00;102351.25;4952372;28;20038;-77
2021/12/14 04:11:54;;;;;;;34.25;16.42;;;;;;;6.98;100.00;102364.00;4937743;29;20082;-77
2021/12/14 04:14:21;;;;;;;30.63;15.20;;;;;;;7.02;100.00;102367.47;4953795;28;20051;-77
2021/12/14 04:16:51;;;;;;;31.33;16.25;;;;;;;7.01;100.00;102373.84;4952249;29;20027;-77
2021/12/14 04:19:22;;;;;;;27.63;14.75;;;;;;;7.07;100.00;102368.19;4954317;28;20360;-77
2021/12/14 04:21:49;;;;;;;25.52;13.93;;;;;;;7.04;100.00;102364.69;4962230;28;20070;-77
2021/12/14 04:24:27;;;;;;;30.15;14.25;;;;;;;6.95;100.00;102361.38;4950061;28;20043;-77
2021/12/14 04:26:55;;;;;;;25.95;14.15;;;;;;;6.95;100.00;102339.59;4953461;29;20565;-77
2021/12/14 04:29:21;;;;;;;29.08;13.98;;;;;;;7.00;100.00;102350.28;4953079;28;20042;-77
2021/12/14 04:31:48;;;;;;;33.70;15.07;;;;;;;6.98;100.00;102357.63;4952416;28;20047;-77
2021/12/14 04:34:17;;;;;;;30.52;15.57;;;;;;;7.00;100.00;102358.47;4936552;29;20034;-77
2021/12/14 04:36:46;;;;;;;34.92;15.68;;;;;;;6.99;100.00;102351.25;4936930;29;20382;-77
2021/12/14 04:53:10;;;;;;;31.63;16.58;;;;;;;6.98;100.00;102358.56;4968318;28;20023;-77
2021/12/14 04:55:38;;;;;;;37.05;17.00;;;;;;;6.99;100.00;102356.69;4953555;28;20043;-77
2021/12/14 04:58:04;;;;;;;30.38;15.48;;;;;;;6.98;100.00;102349.47;4953965;28;20129;-77
2021/12/14 05:00:38;;;;;;;35.10;16.58;;;;;;;6.97;100.00;102343.16;4952584;28;20053;-77
2021/12/14 05:03:13;;;;;;;33.65;16.63;;;;;;;6.96;100.00;102343.22;4965250;28;20051;-77
2021/12/14 05:05:46;;;;;;;39.38;16.52;;;;;;;6.94;100.00;102337.81;4967390;28;20059;-77
2021/12/14 05:11:01;;;;;;;36.13;17.85;;;;;;;6.97;100.00;102339.53;4953942;28;20031;-77
2021/12/14 05:13:35;;;;;;;37.33;17.67;;;;;;;6.96;100.00;102337.75;4953639;28;20028;-77
2021/12/14 05:16:01;;;;;;;36.20;18.02;;;;;;;6.94;100.00;102336.94;4963501;28;21774;-77
2021/12/14 05:18:26;;;;;;;38.13;17.33;;;;;;;6.93;100.00;102325.16;4952354;28;20035;-77
2021/12/14 05:20:52;;;;;;;41.47;18.67;;;;;;;6.95;100.00;102327.81;4957782;28;20039;-77
2021/12/14 05:23:24;;;;;;;37.88;17.95;;;;;;;6.93;100.00;102318.81;4960686;28;20087;-78
2021/12/14 05:25:51;;;;;;;39.33;18.30;;;;;;;6.98;100.00;102324.97;4958619;28;20043;-77
2021/12/14 05:28:19;;;;;;;33.25;17.17;;;;;;;6.92;100.00;102314.31;4958859;28;20038;-77
2021/12/14 05:30:49;;;;;;;36.72;18.30;;;;;;;6.91;100.00;102307.13;4957234;29;20039;-78
2021/12/14 05:33:19;;;;;;;39.15;18.20;;;;;;;6.94;100.00;102315.16;4956015;28;20468;-77
2021/12/14 05:35:47;;;;;;;35.45;17.38;;;;;;;6.91;100.00;102307.13;4972001;28;20031;-77
2021/12/14 05:38:18;;;;;;;35.42;16.65;;;;;;;6.87;100.00;102310.91;4963936;28;20032;-77
2021/12/14 05:43:20;;;;;;;38.42;16.48;;;;;;;6.90;100.00;102316.22;4950075;28;20126;-76
2021/12/14 05:45:56;;;;;;;35.75;15.88;;;;;;;6.92;100.00;102311.59;4959214;28;20051;-78
2021/12/14 05:48:25;;;;;;;33.70;14.95;;;;;;;6.91;100.00;102320.72;4950953;28;20040;-78
2021/12/14 05:50:57;;;;;;;34.30;14.93;;;;;;;6.84;100.00;102319.19;4971661;28;20114;-77
2021/12/14 05:53:28;;;;;;;31.98;14.27;;;;;;;6.88;100.00;102324.44;4956494;29;20032;-78
2021/12/14 05:55:56;;;;;;;32.53;14.43;;;;;;;6.93;100.00;102346.94;4973765;28;20066;-78
2021/12/14 05:58:24;;;;;;;35.83;15.88;;;;;;;6.93;100.00;102349.66;4956830;28;20454;-77
2021/12/14 06:01:00;;;;;;;44.70;16.58;;;;;;;6.91;100.00;102343.38;4948873;28;20051;-78
2021/12/14 06:03:30;;;;;;;36.28;16.30;;;;;;;6.93;100.00;102346.03;4974736;28;20031;-78
2021/12/14 06:05:57;;;;;;;36.75;16.48;;;;;;;6.95;100.00;102344.16;4973195;28;20055;-78
2021/12/14 06:08:27;;;;;;;33.72;15.10;;;;;;;6.93;100.00;102351.50;4958329;28;20046;-79
2021/12/14 06:10:54;;;;;;;36.00;16.27;;;;;;;6.92;100.00;102360.59;4957641;28;20031;-80
2021/12/14 06:13:20;;;;;;;36.60;17.42;;;;;;;6.91;100.00;102345.22;4971558;28;20117;-77
2021/12/14 06:15:46;;;;;;;40.35;18.23;;;;;;;6.91;100.00;102354.28;4956795;28;20452;-77
2021/12/14 06:18:20;;;;;;;45.53;17.67;;;;;;;6.94;100.00;102347.84;4954597;29;20376;-78
2021/12/14 06:20:46;;;;;;;37.33;17.40;;;;;;;6.93;100.00;102355.09;4938763;29;20043;-78
2021/12/14 06:23:12;;;;;;;44.03;17.27;;;;;;;6.96;100.00;102352.25;4957500;28;20108;-78
2021/12/14 06:25:39;;;;;;;35.05;16.35;;;;;;;6.93;100.00;102360.53;4948186;28;20153;-77
2021/12/14 06:28:06;;;;;;;40.70;17.42;;;;;;;6.93;100.00;102359.66;4950821;28;20062;-77
2021/12/14 06:30:35;;;;;;;43.15;18.85;;;;;;;6.92;100.00;102363.31;4949812;28;20090;-77
2021/12/14 06:33:07;;;;;;;41.35;18.45;;;;;;;6.89;100.00;102361.63;4954521;28;20035;-77
2021/12/14 06:35:37;;;;;;;40.25;18.05;;;;;;;6.97;100.00;102361.34;4970247;28;20096;-77
2021/12/14 06:40:45;;;;;;;47.97;19.13;;;;;;;6.96;100.00;102365.88;4955014;28;20077;-78
2021/12/14 06:43:20;;;;;;;49.90;19.67;;;;;;;6.93;100.00;102360.53;4970943;28;20039;-78
2021/12/14 06:45:55;;;;;;;45.72;19.67;;;;;;;7.01;100.00;102365.69;4969745;28;20546;-77
2021/12/14 06:48:33;;;;;;;48.42;18.23;;;;;;;6.99;100.00;102375.75;4951495;28;20031;-76
2021/12/14 06:51:17;;;;;;;41.45;17.85;;;;;;;6.94;100.00;102373.22;4952424;29;20047;-77
2021/12/14 06:53:48;;;;;;;41.80;19.08;;;;;;;6.98;100.00;102371.25;4938397;29;20039;-77
2021/12/14 06:56:15;;;;;;;43.22;18.60;;;;;;;6.97;100.00;102380.38;4951581;28;20130;-77
2021/12/14 06:58:52;;;;;;;50.25;19.63;;;;;;;6.96;100.00;102386.78;4954079;28;20031;-77
2021/12/14 07:01:22;;;;;;;39.85;17.23;;;;;;;6.92;100.00;102382.38;4968393;28;20031;-77
2021/12/14 07:03:58;;;;;;;44.03;17.42;;;;;;;6.95;100.00;102379.53;4969352;28;20120;-76
2021/12/14 07:06:26;;;;;;;46.63;18.20;;;;;;;6.94;100.00;102386.84;4951856;28;20443;-77
2021/12/14 07:08:52;;;;;;;43.03;18.63;;;;;;;6.94;100.00;102388.69;4936702;28;20093;-77
2021/12/14 07:11:23;;;;;;;48.53;18.98;;;;;;;6.97;100.00;102399.44;4968884;28;20035;-77
2021/12/14 07:13:50;;;;;;;46.97;18.63;;;;;;;6.97;100.00;102402.19;4954923;28;20090;-78
2021/12/14 07:16:30;;;;;;;43.28;17.67;;;;;;;6.94;100.00;102411.34;4967621;28;20044;-77
2021/12/14 07:19:00;;;;;;;45.33;17.00;;;;;;;6.99;100.00;102409.31;4953159;28;20471;-77
2021/12/14 07:21:48;;;;;;;49.60;19.40;;;;;;;6.96;100.00;102405.84;4953325;28;20047;-77
2021/12/14 07:24:22;;;;;;;47.28;18.23;;;;;;;6.95;100.00;102417.66;4956050;28;20476;-77
2021/12/14 07:26:50;;;;;;;46.90;18.38;;;;;;;6.92;100.00;102409.59;4948454;29;20043;-78
2021/12/14 07:29:25;;;;;;;47.00;18.50;;;;;;;6.93;100.00;102409.56;4953227;28;20483;-77
2021/12/14 07:31:50;;;;;;;49.75;19.30;;;;;;;6.94;100.00;102415.91;4968465;28;20026;-77
2021/12/14 07:34:20;;;;;;;46.58;17.20;;;;;;;6.94;100.00;102419.50;4955773;28;20349;-78
2021/12/14 07:36:46;;;;;;;41.78;17.10;;;;;;;6.94;100.00;102429.53;4970220;28;20069;-78
2021/12/14 07:39:14;;;;;;;41.15;17.05;;;;;;;6.96;100.00;102431.22;4967825;28;20755;-78
2021/12/14 07:41:46;;;;;;;42.10;18.15;;;;;;;6.96;100.00;102425.78;4970491;28;20134;-78
2021/12/14 07:44:17;;;;;;;48.22;18.65;;;;;;;6.94;100.00;102421.34;4954592;29;20503;-78
2021/12/14 07:46:44;;;;;;;48.50;18.15;;;;;;;6.96;100.00;102433.06;4952064;28;20032;-78
2021/12/14 07:49:19;;;;;;;44.85;17.83;;;;;;;6.97;100.00;102441.19;4955344;28;20035;-78
2021/12/14 07:51:47;;;;;;;45.08;17.95;;;;;;;7.02;100.00;102441.00;4959023;28;20039;-78
2021/12/14 07:54:20;;;;;;;51.38;18.10;;;;;;;7.02;100.00;102449.19;4960138;28;20372;-79
2021/12/14 07:56:53;;;;;;;46.15;19.02;;;;;;;7.01;100.00;102458.28;4959430;29;20471;-78
2021/12/14 07:59:34;;;;;;;48.53;19.63;;;;;;;6.99;100.00;102460.19;4976686;28;20031;-78
2021/12/14 08:02:20;;;;;;;42.03;16.88;;;;;;;7.02;100.00;102470.97;4961081;29;20050;-78
2021/12/14 08:04:52;;;;;;;47.72;18.73;;;;;;;6.98;100.00;102472.00;4960322;29;20058;-78
2021/12/14 08:07:27;;;;;;;46.50;18.23;;;;;;;7.02;100.00;102472.78;4961283;28;20062;-78
2021/12/14 08:09:54;;;;;;;51.50;18.73;;;;;;;6.99;100.00;102471.94;4959967;29;20074;-78
2021/12/14 08:12:48;;;;;;;47.97;19.02;;;;;;;7.01;100.00;102477.34;4977090;28;20051;-78
2021/12/14 08:15:23;;;;;;;50.35;19.10;;;;;;;6.98;100.00;102485.63;4956630;29;20058;-78
2021/12/14 08:18:12;;;;;;;48.58;18.65;;;;;;;6.97;100.00;102475.69;4959646;29;20053;-79
2021/12/14 08:20:57;;;;;;;52.30;19.27;;;;;;;6.97;100.00;102472.97;4976187;28;20078;-79
2021/12/14 08:23:41;;;;;;;45.55;18.88;;;;;;;7.03;100.00;102471.84;4957571;29;20040;-79
2021/12/14 08:26:07;;;;;;;47.35;18.35;;;;;;;7.04;100.00;102473.63;4960317;29;20089;-79
2021/12/14 08:28:44;;;;;;;46.85;18.88;;;;;;;7.01;100.00;102466.44;4943471;29;20036;-79
2021/12/14 08:31:11;;;;;;;45.83;18.25;;;;;;;7.02;100.00;102473.69;4962201;29;20371;-78
2021/12/14 08:33:36;;;;;;;44.90;18.90;;;;;;;7.02;100.00;102464.59;4959481;29;20059;-79
2021/12/14 08:36:05;;;;;;;52.58;19.33;;;;;;;7.04;100.00;102477.22;4976357;28;20067;-78
2021/12/14 08:38:33;;;;;;;49.03;18.70;;;;;;;7.06;100.00;102467.16;4960151;28;20054;-78
2021/12/14 08:41:11;;;;;;;49.63;19.30;;;;;;;7.04;100.00;102457.28;4975444;28;20049;-78
2021/12/14 08:43:46;;;;;;;40.20;17.67;;;;;;;7.05;100.00;102459.97;4944028;29;20418;-78
2021/12/14 08:46:17;;;;;;;46.33;18.70;;;;;;;7.03;100.00;102461.81;4951962;29;20043;-79
2021/12/14 08:48:54;;;;;;;46.55;18.58;;;;;;;7.04;100.00;102466.34;4953017;29;20047;-79
2021/12/14 08:51:42;;;;;;;45.25;17.83;;;;;;;7.04;100.00;102463.63;4957262;29;20055;-79
2021/12/14 08:54:20;;;;;;;45.53;19.17;;;;;;;7.03;100.00;102474.56;4962105;28;20082;-80
2021/12/14 08:57:01;;;;;;;45.70;19.13;;;;;;;7.10;100.00;102479.72;4963138;28;20050;-79
2021/12/14 08:59:27;;;;;;;47.30;18.90;;;;;;;7.10;100.00;102478.81;4960454;29;20114;-80
2021/12/14 09:01:55;;;;;;;47.58;18.90;;;;;;;7.11;100.00;102477.88;4978304;28;20035;-79
2021/12/14 09:04:35;;;;;;;51.75;20.55;;;;;;;7.09;100.00;102480.66;4965099;28;20031;-80
2021/12/14 09:07:06;;;;;;;50.25;19.65;;;;;;;7.14;100.00;102475.03;4960237;29;20131;-80
2021/12/14 09:09:32;;;;;;;37.15;17.33;;;;;;;7.13;100.00;102467.81;4963337;29;20027;-80
2021/12/14 09:12:06;;;;;;;51.30;20.30;;;;;;;7.15;100.00;102491.31;4979854;28;20046;-79
2021/12/14 09:14:32;;;;;;;47.50;19.70;;;;;;;7.20;100.00;102480.25;4962711;29;20058;-77
2021/12/14 09:16:58;;;;;;;45.53;18.85;;;;;;;7.18;100.00;102482.13;4978296;28;20547;-76
2021/12/14 09:19:33;;;;;;;47.75;19.92;;;;;;;7.20;100.00;102480.25;4964866;28;20033;-78
2021/12/14 09:22:03;;;;;;;47.72;19.17;;;;;;;7.20;100.00;102490.25;4947934;29;20039;-78
2021/12/14 09:24:31;;;;;;;51.47;19.30;;;;;;;7.25;100.00;102480.09;4964709;28;20031;-78
2021/12/14 09:27:04;;;;;;;46.38;19.90;;;;;;;7.27;100.00;102486.34;4977681;28;20119;-78
2021/12/14 09:29:32;;;;;;;48.17;20.00;;;;;;;7.35;100.00;102489.66;4963618;28;20042;-77
2021/12/14 09:32:01;;;;;;;42.40;18.48;;;;;;;7.31;100.00;102494.34;4946228;29;20027;-80
2021/12/14 09:34:29;;;;;;;56.38;20.50;;;;;;;7.32;100.00;102487.06;4977232;28;20098;-78
2021/12/14 09:36:58;;;;;;;50.53;18.60;;;;;;;7.30;100.00;102484.41;4963259;28;20051;-78
2021/12/14 09:39:41;;;;;;;49.22;20.48;;;;;;;7.40;100.00;102484.03;4962720;28;20479;-78
2021/12/14 09:42:10;;;;;;;47.97;19.52;;;;;;;7.44;100.00;102486.56;4962666;28;20051;-77
2021/12/14 09:44:37;;;;;;;57.55;21.73;;;;;;;7.41;100.00;102489.44;4963136;29;20094;-79
2021/12/14 09:47:14;;;;;;;49.83;19.20;;;;;;;7.38;100.00;102483.19;4976160;28;20112;-80
2021/12/14 09:49:42;;;;;;;50.25;19.42;;;;;;;7.41;100.00;102484.00;4958676;28;20052;-78
2021/12/14 09:52:17;;;;;;;50.25;19.13;;;;;;;7.44;100.00;102482.97;4960584;29;20086;-78
2021/12/14 09:54:42;;;;;;;48.10;18.58;;;;;;;7.45;100.00;102485.63;4975232;28;20039;-83
2021/12/14 09:57:18;;;;;;;53.53;20.50;;;;;;;7.46;100.00;102479.25;4976111;28;20031;-80
2021/12/14 09:59:44;;;;;;;48.33;19.33;;;;;;;7.46;100.00;102473.78;4960029;29;20039;-78
2021/12/14 10:02:15;;;;;;;52.35;20.33;;;;;;;7.47;100.00;102474.66;4957954;28;20039;-79
2021/12/14 10:04:54;;;;;;;53.05;20.00;;;;;;;7.50;100.00;102478.16;4959311;28;20114;-79
2021/12/14 10:07:22;;;;;;;48.45;20.58;;;;;;;7.52;100.00;102475.38;4973812;28;20058;-79
2021/12/14 10:09:50;;;;;;;48.78;21.13;;;;;;;7.53;100.00;102474.44;4973524;28;20041;-79
2021/12/14 10:12:49;;;;;;;52.13;21.33;;;;;;;7.58;100.00;102482.44;4972463;28;20027;-79
2021/12/14 10:15:45;;;;;;;55.70;21.30;;;;;;;7.65;100.00;102483.94;4972938;28;20110;-79
2021/12/14 10:18:16;;;;;;;53.83;21.75;;;;;;;7.62;100.00;102474.03;4974076;28;20067;-78
2021/12/14 10:20:52;;;;;;;51.92;21.00;;;;;;;7.66;100.00;102483.88;4958599;29;20027;-78
2021/12/14 10:23:19;;;;;;;49.00;20.05;;;;;;;7.64;100.00;102479.44;4977035;28;20039;-79
2021/12/14 10:25:45;;;;;;;52.15;20.77;;;;;;;7.65;100.00;102482.09;4958723;28;20031;-78
2021/12/14 10:28:11;;;;;;;50.03;21.98;;;;;;;7.70;100.00;102480.06;4973731;28;20483;-78
2021/12/14 10:30:49;;;;;;;47.08;19.17;;;;;;;7.73;100.00;102489.97;4957479;28;20058;-78
2021/12/14 10:33:15;;;;;;;45.90;20.10;;;;;;;7.72;100.00;102467.28;4952018;28;20040;-78
2021/12/14 10:35:48;;;;;;;57.67;22.02;;;;;;;7.74;100.00;102478.13;4959093;28;20065;-79
2021/12/14 10:43:32;;;;;;;56.30;21.63;;;;;;;7.89;100.00;102493.84;4958915;29;20039;-79
2021/12/14 10:46:05;;;;;;;50.08;20.33;;;;;;;8.03;100.00;102486.91;4957716;29;20521;-79
2021/12/14 10:48:35;;;;;;;53.67;21.30;;;;;;;8.14;100.00;102492.81;4956185;29;20514;-79
2021/12/14 10:51:05;;;;;;;49.97;21.17;;;;;;;8.09;100.00;102492.13;4973902;28;20066;-78
2021/12/14 10:53:31;;;;;;;50.58;21.23;;;;;;;8.07;100.00;102494.03;4956082;28;20031;-80
2021/12/14 10:56:04;;;;;;;50.08;19.77;;;;;;;8.09;100.00;102487.53;4959351;28;20050;-79
2021/12/14 10:58:30;;;;;;;;;;;;;;;8.13;100.00;102479.22;4957883;29;20031;-79
2021/12/14 11:01:04;;;;;;;45.95;20.25;;;;;;;8.13;100.00;102485.56;4955457;28;19919;-80
2021/12/14 11:03:35;;;;;;;51.97;20.85;;;;;;;8.18;100.00;102475.38;4970899;28;20039;-79
2021/12/14 11:06:04;;;;;;;53.08;21.25;;;;;;;8.29;100.00;102478.50;4958454;28;20435;-79
2021/12/14 11:11:36;;;;;;;49.38;21.05;;;;;;;8.22;100.00;102467.94;4957100;28;20479;-78
2021/12/14 11:14:07;;;;;;;51.05;22.33;;;;;;;8.25;100.00;102479.59;4958666;28;20055;-78
2021/12/14 11:19:44;;;;;;;51.65;21.75;;;;;;;8.36;100.00;102475.50;4952904;28;20062;-78
2021/12/14 11:22:24;;;;;;;54.33;22.23;;;;;;;8.29;100.00;102469.44;4953098;29;20062;-77
2021/12/14 11:24:57;;;;;;;50.05;22.15;;;;;;;8.31;100.00;102472.09;4958855;28;20043;-78
2021/12/14 11:27:30;;;;;;;52.85;20.23;;;;;;;8.32;100.00;102460.22;4957734;28;20039;-80
2021/12/14 11:30:10;;;;;;;51.72;21.17;;;;;;;8.34;100.00;102458.31;4956799;28;20558;-80
2021/12/14 11:32:41;;;;;;;47.55;21.38;;;;;;;8.31;100.00;102455.72;4965661;28;20063;-78
2021/12/14 11:35:27;;;;;;;50.83;23.27;;;;;;;8.36;100.00;102461.84;4939040;29;20023;-78
2021/12/14 11:37:55;;;;;;;53.75;21.30;;;;;;;8.42;100.00;102461.59;4966506;28;20035;-77
2021/12/14 11:40:24;;;;;;;52.50;22.42;;;;;;;8.45;100.00;102459.66;4955927;29;20027;-78
2021/12/14 11:42:51;;;;;;;52.85;21.33;;;;;;;8.46;100.00;102452.34;4953744;29;20035;-78
2021/12/14 11:45:22;;;;;;;55.13;23.52;;;;;;;8.49;100.00;102454.06;4954355;29;20039;-79
2021/12/14 11:47:54;;;;;;;55.60;23.05;;;;;;;8.54;100.00;102452.88;4957778;28;20046;-78
2021/12/14 11:50:35;;;;;;;58.72;23.10;;;;;;;8.50;100.00;102451.25;4955979;29;20039;-78
2021/12/14 11:53:00;;;;;;;49.92;21.65;;;;;;;8.54;100.00;102455.59;4972796;28;20027;-79
2021/12/14 11:55:49;;;;;;;53.83;22.70;;;;;;;8.53;100.00;102453.84;4956073;29;20035;-79
2021/12/14 11:58:20;;;;;;;56.55;21.98;;;;;;;8.54;100.00;102450.16;4955535;28;20035;-78
2021/12/14 12:00:54;;;;;;;54.17;22.30;;;;;;;8.56;100.00;102444.63;4954861;28;20415;-78
2021/12/14 12:03:21;;;;;;;52.58;22.75;;;;;;;8.65;100.00;102439.63;4957012;28;20047;-78
2021/12/14 12:05:59;;;;;;;56.67;22.75;;;;;;;8.74;100.00;102438.34;4956821;28;20491;-78
2021/12/14 12:11:12;;;;;;;57.80;22.83;;;;;;;8.82;100.00;102437.97;4963709;28;20035;-78
2021/12/14 12:13:40;;;;;;;51.15;21.80;;;;;;;8.81;100.00;102445.28;4972413;28;20039;-78
2021/12/14 12:16:18;;;;;;;53.08;23.20;;;;;;;8.80;100.00;102442.63;4957476;28;20077;-78